createdAt,value
2019-04-04T00:05:29.188Z,14.30
2019-04-04T00:08:24.337Z,10.07
2019-04-04T00:14:51.639Z,13.70
2019-04-04T00:20:51.497Z,14.07
2019-04-04T00:24:01.397Z,14.10
2019-04-04T00:27:01.652Z,11.73
2019-04-04T00:30:08.995Z,26.73
2019-04-04T00:33:07.574Z,15.70
2019-04-04T00:36:14.951Z,12.77
2019-04-04T00:39:20.751Z,19.90
2019-04-04T00:42:54.696Z,16.80
2019-04-04T00:45:57.182Z,19.70
2019-04-04T00:49:21.808Z,12.17
2019-04-04T00:52:26.630Z,15.17
2019-04-04T00:55:20.582Z,18.10
2019-04-04T00:58:20.827Z,19.40
2019-04-04T01:01:35.197Z,17.33
2019-04-04T01:04:31.103Z,17.87
2019-04-04T01:07:29.661Z,20.53
2019-04-04T01:10:13.275Z,17.57
2019-04-04T01:13:36.829Z,20.07
2019-04-04T01:16:36.980Z,15.33
2019-04-04T01:19:25.226Z,20.93
2019-04-04T01:22:13.453Z,18.63
2019-04-04T01:25:23.343Z,14.20
2019-04-04T01:28:12.221Z,19.00
2019-04-04T01:31:14.590Z,15.77
2019-04-04T01:34:20.928Z,13.97
2019-04-04T01:37:25.195Z,12.90
2019-04-04T01:40:41.229Z,17.30
2019-04-04T01:43:40.026Z,20.10
2019-04-04T01:49:53.471Z,15.13
2019-04-04T01:52:49.839Z,15.27
2019-04-04T01:56:11.542Z,16.60
2019-04-04T01:58:59.314Z,17.47
2019-04-04T02:01:54.248Z,16.93
2019-04-04T02:05:01.490Z,13.90
2019-04-04T02:07:51.810Z,14.80
2019-04-04T02:11:28.063Z,12.60
2019-04-04T02:13:50.356Z,12.40
2019-04-04T02:16:42.337Z,13.87
2019-04-04T02:19:57.106Z,14.07
2019-04-04T02:23:02.710Z,10.30
2019-04-04T02:25:59.908Z,12.00
2019-04-04T02:29:20.704Z,12.47
2019-04-04T02:32:10.298Z,13.53
2019-04-04T02:35:02.736Z,12.57
2019-04-04T02:38:17.249Z,15.57
2019-04-04T02:41:02.893Z,14.27
2019-04-04T02:44:12.846Z,17.40
2019-04-04T02:46:57.703Z,14.30
2019-04-04T02:53:19.179Z,16.67
2019-04-04T02:56:18.241Z,16.00
2019-04-04T02:59:11.038Z,12.57
2019-04-04T03:02:36.407Z,10.77
2019-04-04T03:08:39.466Z,12.13
2019-04-04T03:11:42.495Z,10.50
2019-04-04T03:14:39.487Z,11.57
2019-04-04T03:17:43.828Z,16.17
2019-04-04T03:20:33.487Z,13.30
2019-04-04T03:23:40.592Z,10.63
2019-04-04T03:26:52.199Z,12.87
2019-04-04T03:30:00.953Z,11.10
2019-04-04T03:33:02.416Z,9.33
2019-04-04T03:35:55.271Z,11.37
2019-04-04T03:39:02.574Z,14.57
2019-04-04T03:41:57.408Z,19.70
2019-04-04T03:45:08.700Z,22.43
2019-04-04T03:48:08.842Z,12.83
2019-04-04T03:50:57.425Z,15.37
2019-04-04T03:54:23.251Z,9.23
2019-04-04T03:57:05.134Z,11.30
2019-04-04T04:00:18.829Z,9.20
2019-04-04T04:03:12.074Z,10.73
2019-04-04T04:06:03.212Z,11.43
2019-04-04T04:09:15.759Z,16.43
2019-04-04T04:11:58.343Z,21.07
2019-04-04T04:16:05.462Z,13.87
2019-04-04T04:18:11.703Z,12.70
2019-04-04T04:20:57.010Z,10.83
2019-04-04T04:23:58.094Z,9.70
2019-04-04T04:26:45.600Z,9.20
2019-04-04T04:29:36.639Z,10.30
2019-04-04T04:32:57.320Z,13.30
2019-04-04T04:36:28.812Z,9.43
2019-04-04T04:39:21.767Z,9.93
2019-04-04T04:42:42.475Z,11.73
2019-04-04T04:45:54.153Z,8.97
2019-04-04T04:55:12.838Z,10.07
2019-04-04T04:58:09.769Z,10.43
2019-04-04T05:04:14.817Z,12.77
2019-04-04T05:06:46.223Z,15.60
2019-04-04T05:09:15.448Z,30.70
2019-04-04T05:11:45.396Z,20.87
2019-04-04T05:14:14.606Z,27.43
2019-04-04T05:16:43.847Z,26.00
2019-04-04T05:19:13.386Z,19.27
2019-04-04T05:21:42.807Z,26.10
2019-04-04T05:24:16.051Z,14.37
2019-04-04T05:26:46.352Z,16.30
2019-04-04T05:29:15.721Z,13.40
2019-04-04T05:31:45.086Z,15.27
2019-04-04T05:34:17.646Z,11.80
2019-04-04T05:36:46.793Z,22.17
2019-04-04T05:39:20.152Z,10.83
2019-04-04T05:41:49.449Z,10.73
2019-04-04T05:44:18.647Z,10.07
2019-04-04T05:46:51.175Z,9.73
2019-04-04T05:49:19.066Z,10.83
2019-04-04T05:51:49.039Z,23.47
2019-04-04T05:54:18.714Z,30.77
2019-04-04T05:56:49.056Z,13.20
2019-04-04T05:59:19.045Z,13.13
2019-04-04T06:01:48.513Z,11.77
2019-04-04T06:04:19.667Z,15.30
2019-04-04T06:06:48.657Z,12.77
2019-04-04T06:09:17.978Z,21.50
2019-04-04T06:11:48.751Z,31.07
2019-04-04T06:14:20.472Z,24.60
2019-04-04T06:16:48.931Z,29.33
2019-04-04T06:19:18.122Z,30.63
2019-04-04T06:21:49.633Z,31.17
2019-04-04T06:24:27.297Z,28.60
2019-04-04T06:26:57.293Z,27.30
2019-04-04T06:29:29.175Z,34.20
2019-04-04T06:32:00.408Z,22.53
2019-04-04T06:34:30.031Z,22.17
2019-04-04T06:36:59.386Z,30.30
2019-04-04T06:39:28.470Z,32.77
2019-04-04T06:41:57.882Z,33.13
2019-04-04T06:44:27.029Z,14.87
2019-04-04T06:46:56.146Z,15.23
2019-04-04T06:49:28.609Z,15.87
2019-04-04T06:51:56.346Z,13.87
2019-04-04T06:54:26.269Z,15.77
2019-04-04T06:56:55.714Z,12.83
2019-04-04T06:59:25.270Z,13.53
2019-04-04T07:01:54.802Z,12.37
2019-04-04T07:04:24.058Z,11.33
2019-04-04T07:06:53.350Z,13.90
2019-04-04T07:09:22.701Z,14.00
2019-04-04T07:11:57.986Z,11.63
2019-04-04T07:14:30.002Z,12.13
2019-04-04T07:16:58.498Z,10.53
2019-04-04T07:19:27.987Z,13.37
2019-04-04T07:21:57.203Z,12.60
2019-04-04T07:24:26.398Z,13.33
2019-04-04T07:26:55.714Z,13.47
2019-04-04T07:29:25.333Z,14.87
2019-04-04T07:31:55.387Z,17.80
2019-04-04T07:34:24.845Z,16.07
2019-04-04T07:36:54.185Z,15.90
2019-04-04T07:39:23.364Z,12.73
2019-04-04T07:41:52.566Z,14.73
2019-04-04T07:44:23.367Z,13.77
2019-04-04T07:46:52.586Z,14.50
2019-04-04T07:49:23.237Z,14.70
2019-04-04T07:51:55.598Z,15.23
2019-04-04T07:54:25.087Z,12.00
2019-04-04T07:56:54.250Z,12.63
2019-04-04T07:59:23.415Z,13.00
2019-04-04T08:01:52.551Z,12.53
2019-04-04T08:04:21.883Z,12.47
2019-04-04T08:06:51.174Z,12.40
2019-04-04T08:09:20.310Z,14.93
2019-04-04T08:11:49.623Z,27.67
2019-04-04T08:14:19.058Z,18.27
2019-04-04T08:16:48.830Z,15.63
2019-04-04T08:19:17.993Z,15.00
2019-04-04T08:21:47.416Z,16.23
2019-04-04T08:24:16.695Z,21.27
2019-04-04T08:26:45.906Z,26.30
2019-04-04T08:29:15.109Z,31.27
2019-04-04T08:31:44.279Z,31.70
2019-04-04T08:34:13.547Z,17.63
2019-04-04T08:36:42.848Z,15.43
2019-04-04T08:39:12.730Z,16.70
2019-04-04T08:41:41.868Z,13.53
2019-04-04T08:44:11.178Z,13.97
2019-04-04T08:46:40.750Z,15.57
2019-04-04T08:49:10.005Z,15.10
2019-04-04T08:51:39.138Z,16.20
2019-04-04T08:54:08.291Z,17.80
2019-04-04T08:56:37.525Z,17.10
2019-04-04T08:59:06.813Z,17.13
2019-04-04T09:01:36.034Z,15.83
2019-04-04T09:04:05.402Z,16.30
2019-04-04T09:06:34.657Z,13.80
2019-04-04T09:09:09.726Z,13.13
2019-04-04T09:11:38.931Z,13.13
2019-04-04T09:14:08.079Z,12.90
2019-04-04T09:16:37.296Z,14.77
2019-04-04T09:19:06.656Z,27.30
2019-04-04T09:21:35.882Z,15.40
2019-04-04T09:24:05.137Z,13.23
2019-04-04T09:26:34.304Z,16.73
2019-04-04T09:29:03.505Z,13.97
2019-04-04T09:31:32.699Z,12.13
2019-04-04T09:34:01.865Z,19.27
2019-04-04T09:36:31.079Z,14.47
2019-04-04T09:39:00.366Z,17.03
2019-04-04T09:41:29.695Z,14.20
2019-04-04T09:43:59.050Z,11.73
2019-04-04T09:46:28.415Z,12.77
2019-04-04T09:48:57.501Z,12.10
2019-04-04T09:51:26.950Z,12.13
2019-04-04T09:53:56.102Z,13.33
2019-04-04T09:56:25.623Z,26.63
2019-04-04T09:58:55.157Z,17.90
2019-04-04T10:01:24.411Z,18.47
2019-04-04T10:03:53.721Z,17.87
2019-04-04T10:06:22.867Z,16.80
2019-04-04T10:08:52.131Z,17.23
2019-04-04T10:11:21.511Z,14.67
2019-04-04T10:13:51.003Z,15.70
2019-04-04T10:16:20.287Z,21.80
2019-04-04T10:18:49.843Z,21.23
2019-04-04T10:21:18.978Z,20.83
2019-04-04T10:23:48.130Z,15.97
2019-04-04T10:26:17.291Z,18.63
2019-04-04T10:28:46.398Z,27.23
2019-04-04T10:31:15.793Z,17.60
2019-04-04T10:33:44.876Z,15.80
2019-04-04T10:36:13.982Z,28.67
2019-04-04T10:38:43.306Z,18.13
2019-04-04T10:41:12.525Z,18.43
2019-04-04T10:43:43.846Z,22.87
2019-04-04T10:46:13.055Z,15.47
2019-04-04T10:48:42.122Z,16.37
2019-04-04T10:51:11.243Z,15.90
2019-04-04T10:53:40.338Z,15.10
2019-04-04T10:56:10.544Z,14.53
2019-04-04T10:58:39.615Z,23.27
2019-04-04T11:01:08.871Z,30.43
2019-04-04T11:03:38.614Z,22.83
2019-04-04T11:06:09.525Z,23.90
2019-04-04T11:08:40.419Z,20.60
2019-04-04T11:11:09.734Z,15.67
2019-04-04T11:13:38.906Z,26.43
2019-04-04T11:16:08.138Z,19.97
2019-04-04T11:18:37.348Z,32.30
2019-04-04T11:21:06.535Z,28.57
2019-04-04T11:23:35.807Z,32.80
2019-04-04T11:26:05.266Z,32.43
2019-04-04T11:28:34.482Z,29.50
2019-04-04T11:31:03.690Z,22.93
2019-04-04T11:33:32.821Z,31.40
2019-04-04T11:36:02.058Z,27.90
2019-04-04T11:38:31.392Z,29.43
2019-04-04T11:41:00.546Z,26.93
2019-04-04T11:43:30.356Z,26.73
2019-04-04T11:45:59.506Z,31.83
2019-04-04T11:48:28.708Z,25.50
2019-04-04T11:50:57.944Z,17.53
2019-04-04T11:53:27.214Z,27.63
2019-04-04T11:55:56.429Z,30.90
2019-04-04T11:58:25.640Z,26.50
2019-04-04T12:00:56.670Z,21.00
2019-04-04T12:03:25.967Z,28.63
2019-04-04T12:05:55.253Z,25.03
2019-04-04T12:08:24.614Z,24.70
2019-04-04T12:10:53.936Z,22.97
2019-04-04T12:13:23.198Z,23.47
2019-04-04T12:15:52.542Z,19.73
2019-04-04T12:18:21.678Z,26.00
2019-04-04T12:20:51.114Z,22.67
2019-04-04T12:23:20.358Z,22.40
2019-04-04T12:25:49.692Z,20.90
2019-04-04T12:28:18.869Z,22.23
2019-04-04T12:30:48.075Z,26.37
2019-04-04T12:33:17.223Z,23.20
2019-04-04T12:35:46.486Z,23.57
2019-04-04T12:38:15.705Z,22.87
2019-04-04T12:40:44.900Z,28.50
2019-04-04T12:43:14.078Z,20.97
2019-04-04T12:45:43.691Z,18.30
2019-04-04T12:48:12.959Z,20.73
2019-04-04T12:50:42.261Z,16.60
2019-04-04T12:53:12.766Z,22.23
2019-04-04T12:55:41.920Z,21.80
2019-04-04T12:58:11.083Z,22.67
2019-04-04T13:00:40.570Z,21.13
2019-04-04T13:03:09.995Z,20.63
2019-04-04T13:05:39.416Z,20.87
2019-04-04T13:08:08.675Z,12.13
2019-04-04T13:10:37.906Z,15.37
2019-04-04T13:13:07.188Z,18.10
2019-04-04T13:15:36.466Z,15.90
2019-04-04T13:18:05.822Z,17.60
2019-04-04T13:20:35.067Z,19.30
2019-04-04T13:23:05.556Z,17.60
2019-04-04T13:25:34.787Z,19.27
2019-04-04T13:28:04.102Z,19.70
2019-04-04T13:30:33.454Z,15.40
2019-04-04T13:33:02.682Z,19.33
2019-04-04T13:35:31.834Z,17.77
2019-04-04T13:38:01.109Z,17.03
2019-04-04T13:40:30.658Z,15.23
2019-04-04T13:42:59.808Z,15.93
2019-04-04T13:45:29.163Z,17.80
2019-04-04T13:47:58.454Z,19.80
2019-04-04T13:50:27.621Z,17.27
2019-04-04T13:52:56.747Z,18.33
2019-04-04T13:55:27.391Z,16.53
2019-04-04T13:57:56.929Z,18.87
2019-04-04T14:00:26.503Z,20.23
2019-04-04T14:02:55.832Z,23.27
2019-04-04T14:05:24.955Z,17.60
2019-04-04T14:07:54.171Z,19.57
2019-04-04T14:10:23.803Z,20.87
2019-04-04T14:12:53.414Z,21.17
2019-04-04T14:15:22.708Z,24.77
2019-04-04T14:17:51.994Z,23.37
2019-04-04T14:20:21.323Z,12.93
2019-04-04T14:22:51.495Z,19.67
2019-04-04T14:25:21.390Z,18.67
2019-04-04T14:27:53.788Z,14.80
2019-04-04T14:30:23.334Z,19.97
2019-04-04T14:32:52.578Z,17.07
2019-04-04T14:35:21.766Z,17.07
2019-04-04T14:37:51.034Z,12.77
2019-04-04T14:40:21.179Z,14.80
2019-04-04T14:42:50.379Z,21.60
2019-04-04T14:45:19.547Z,25.07
2019-04-04T14:47:48.795Z,20.80
2019-04-04T14:50:17.994Z,22.83
2019-04-04T14:52:47.209Z,23.07
2019-04-04T14:55:18.125Z,23.00
2019-04-04T14:57:47.338Z,16.67
2019-04-04T15:00:17.309Z,15.70
2019-04-04T15:02:46.674Z,22.00
2019-04-04T15:05:16.035Z,25.50
2019-04-04T15:07:45.167Z,24.23
2019-04-04T15:10:14.358Z,23.47
2019-04-04T15:12:43.534Z,16.37
2019-04-04T15:15:13.253Z,23.33
2019-04-04T15:17:48.663Z,19.13
2019-04-04T15:20:19.646Z,21.83
2019-04-04T15:22:49.067Z,20.60
2019-04-04T15:25:18.340Z,18.03
2019-04-04T15:27:47.497Z,20.67
2019-04-04T15:30:16.743Z,19.87
2019-04-04T15:32:46.066Z,19.83
2019-04-04T15:35:15.390Z,22.00
2019-04-04T15:37:44.705Z,24.57
2019-04-04T15:40:14.151Z,27.77
2019-04-04T15:42:43.477Z,16.07
2019-04-04T15:45:14.356Z,19.23
2019-04-04T15:47:43.586Z,20.90
2019-04-04T15:50:13.106Z,19.50
2019-04-04T15:52:42.486Z,24.77
2019-04-04T15:55:11.927Z,23.30
2019-04-04T15:57:41.378Z,24.23
2019-04-04T16:00:10.911Z,24.20
2019-04-04T16:02:40.234Z,18.17
2019-04-04T16:05:09.534Z,13.23
2019-04-04T16:07:38.775Z,23.83
2019-04-04T16:10:08.271Z,19.43
2019-04-04T16:12:37.602Z,19.87
2019-04-04T16:15:07.255Z,14.17
2019-04-04T16:17:37.358Z,26.47
2019-04-04T16:20:08.670Z,20.80
2019-04-04T16:22:38.102Z,24.47
2019-04-04T16:25:10.516Z,24.23
2019-04-04T16:27:39.978Z,16.23
2019-04-04T16:30:11.266Z,24.67
2019-04-04T16:32:40.832Z,15.23
2019-04-04T16:35:10.182Z,24.30
2019-04-04T16:37:39.563Z,25.77
2019-04-04T16:40:09.811Z,21.43
2019-04-04T16:42:39.272Z,20.73
2019-04-04T16:45:08.888Z,18.73
2019-04-04T16:47:39.126Z,29.83
2019-04-04T16:50:09.403Z,26.83
2019-04-04T16:52:38.810Z,29.67
2019-04-04T16:55:08.367Z,22.57
2019-04-04T16:57:38.675Z,26.00
2019-04-04T17:00:08.563Z,22.47
2019-04-04T17:02:37.733Z,23.63
2019-04-04T17:05:10.685Z,26.73
2019-04-04T17:07:38.647Z,25.17
2019-04-04T17:10:09.054Z,25.70
2019-04-04T17:12:45.622Z,21.27
2019-04-04T17:15:15.759Z,20.80
2019-04-04T17:17:45.145Z,25.83
2019-04-04T17:20:16.566Z,22.80
2019-04-04T17:22:46.349Z,26.13
2019-04-04T17:25:16.671Z,23.87
2019-04-04T17:27:46.275Z,23.20
2019-04-04T17:30:16.366Z,28.17
2019-04-04T17:32:48.614Z,22.80
2019-04-04T17:35:16.707Z,20.23
2019-04-04T17:37:46.083Z,32.33
2019-04-04T17:40:16.131Z,30.63
2019-04-04T17:42:45.407Z,33.10
2019-04-04T17:45:15.067Z,28.53
2019-04-04T17:47:52.300Z,18.17
2019-04-04T17:50:21.991Z,26.57
2019-04-04T17:52:51.580Z,26.43
2019-04-04T17:55:21.976Z,26.97
2019-04-04T17:57:51.103Z,27.23
2019-04-04T18:00:21.791Z,17.87
2019-04-04T18:02:50.999Z,17.80
2019-04-04T18:05:20.468Z,25.50
2019-04-04T18:07:50.836Z,30.33
2019-04-04T18:10:20.698Z,20.37
2019-04-04T18:12:49.980Z,27.60
2019-04-04T18:15:19.354Z,30.73
2019-04-04T18:17:48.999Z,29.23
2019-04-04T18:20:18.530Z,26.63
2019-04-04T18:22:47.886Z,27.43
2019-04-04T18:25:17.549Z,16.43
2019-04-04T18:27:46.926Z,34.57
2019-04-04T18:30:16.363Z,30.27
2019-04-04T18:32:46.657Z,24.90
2019-04-04T18:35:16.397Z,29.03
2019-04-04T18:37:46.053Z,27.40
2019-04-04T18:40:15.714Z,31.13
2019-04-04T18:42:53.060Z,21.47
2019-04-04T18:45:16.012Z,23.17
2019-04-04T18:47:45.387Z,27.00
2019-04-04T18:50:14.927Z,26.83
2019-04-04T18:52:44.390Z,24.03
2019-04-04T18:55:19.824Z,29.30
2019-04-04T18:57:46.042Z,28.13
2019-04-04T19:00:15.755Z,31.00
2019-04-04T19:02:46.022Z,29.73
2019-04-04T19:05:15.405Z,16.80
2019-04-04T19:07:45.147Z,28.20
2019-04-04T19:10:14.793Z,24.77
2019-04-04T19:12:44.005Z,27.23
2019-04-04T19:15:14.609Z,26.83
2019-04-04T19:17:43.954Z,27.23
2019-04-04T19:20:13.416Z,25.93
2019-04-04T19:22:42.584Z,30.77
2019-04-04T19:25:13.785Z,20.67
2019-04-04T19:27:43.535Z,26.33
2019-04-04T19:30:13.407Z,28.80
2019-04-04T19:32:43.003Z,26.67
2019-04-04T19:35:12.290Z,25.67
2019-04-04T19:37:41.858Z,17.00
2019-04-04T19:40:11.357Z,26.77
2019-04-04T19:42:42.467Z,26.73
2019-04-04T19:45:12.437Z,19.10
2019-04-04T19:47:41.794Z,17.37
2019-04-04T19:50:11.305Z,24.67
2019-04-04T19:52:40.605Z,17.93
2019-04-04T19:55:10.602Z,20.37
2019-04-04T19:57:40.888Z,15.50
2019-04-04T20:00:10.980Z,28.80
2019-04-04T20:02:40.335Z,30.17
2019-04-04T20:05:10.226Z,26.07
2019-04-04T20:07:39.463Z,16.93
2019-04-04T20:10:08.947Z,19.20
2019-04-04T20:12:40.168Z,23.93
2019-04-04T20:15:09.638Z,25.17
2019-04-04T20:17:38.937Z,16.90
2019-04-04T20:20:09.374Z,22.17
2019-04-04T20:22:38.774Z,20.47
2019-04-04T20:25:08.402Z,26.73
2019-04-04T20:27:37.650Z,21.43
2019-04-04T20:30:07.961Z,18.73
2019-04-04T20:32:37.278Z,21.37
2019-04-04T20:35:06.978Z,25.43
2019-04-04T20:37:36.232Z,28.23
2019-04-04T20:40:05.790Z,31.70
2019-04-04T20:42:36.106Z,26.37
2019-04-04T20:45:05.938Z,18.30
2019-04-04T20:47:35.241Z,28.13
2019-04-04T20:50:04.884Z,26.00
2019-04-04T20:52:34.152Z,38.67
2019-04-04T20:55:03.327Z,32.07
2019-04-04T20:57:32.670Z,30.53
2019-04-04T21:00:02.065Z,33.80
2019-04-04T21:02:31.345Z,26.40
2019-04-04T21:05:00.738Z,28.23
2019-04-04T21:07:30.051Z,22.87
2019-04-04T21:09:59.162Z,31.30
2019-04-04T21:12:28.597Z,33.33
2019-04-04T21:14:57.910Z,37.17
2019-04-04T21:17:27.273Z,28.73
2019-04-04T21:19:56.489Z,34.50
2019-04-04T21:22:27.676Z,40.73
2019-04-04T21:24:57.213Z,26.30
2019-04-04T21:27:26.491Z,24.77
2019-04-04T21:29:55.712Z,31.03
2019-04-04T21:32:25.015Z,26.07
2019-04-04T21:34:54.334Z,29.20
2019-04-04T21:37:23.686Z,30.60
2019-04-04T21:39:52.889Z,30.10
2019-04-04T21:42:22.031Z,29.90
2019-04-04T21:44:51.361Z,15.93
2019-04-04T21:47:21.024Z,32.87
2019-04-04T21:49:50.439Z,32.17
2019-04-04T21:52:19.721Z,31.63
2019-04-04T21:54:50.495Z,19.27
2019-04-04T21:57:19.778Z,33.67
2019-04-04T21:59:49.106Z,35.87
2019-04-04T22:02:18.475Z,31.37
2019-04-04T22:04:47.881Z,24.73
2019-04-04T22:07:17.537Z,21.60
2019-04-04T22:09:46.818Z,35.00
2019-04-04T22:12:16.124Z,28.00
2019-04-04T22:14:45.447Z,22.50
2019-04-04T22:17:14.648Z,24.87
2019-04-04T22:19:43.890Z,22.97
2019-04-04T22:22:13.192Z,31.20
2019-04-04T22:24:41.949Z,22.43
2019-04-04T22:27:11.180Z,24.10
2019-04-04T22:29:40.559Z,30.67
2019-04-04T22:32:09.752Z,31.93
2019-04-04T22:34:44.714Z,37.63
2019-04-04T22:37:13.987Z,24.53
2019-04-04T22:39:43.558Z,36.37
2019-04-04T22:42:12.748Z,18.20
2019-04-04T22:44:41.998Z,30.00
2019-04-04T22:47:14.137Z,37.30
2019-04-04T22:49:44.760Z,26.17
2019-04-04T22:52:13.976Z,40.83
2019-04-04T22:54:44.245Z,39.57
2019-04-04T22:57:13.527Z,41.87
2019-04-04T22:59:42.764Z,32.00
2019-04-04T23:02:11.948Z,26.90
2019-04-04T23:04:41.103Z,35.50
2019-04-04T23:07:10.255Z,37.90
2019-04-04T23:09:39.390Z,16.70
2019-04-04T23:12:11.528Z,32.73
2019-04-04T23:14:47.823Z,34.87
2019-04-04T23:17:11.587Z,37.13
2019-04-04T23:19:40.839Z,37.27
2019-04-04T23:22:10.027Z,32.30
2019-04-04T23:24:39.918Z,26.60
2019-04-04T23:27:09.247Z,34.90
2019-04-04T23:29:38.492Z,37.40
2019-04-04T23:32:07.624Z,38.60
2019-04-04T23:34:37.060Z,36.90
2019-04-04T23:37:09.330Z,34.37
2019-04-04T23:39:38.566Z,33.93
2019-04-04T23:42:07.711Z,33.87
2019-04-04T23:44:37.181Z,38.03
2019-04-04T23:47:06.462Z,22.00
2019-04-04T23:49:35.747Z,34.97
2019-04-04T23:52:04.918Z,31.93
2019-04-04T23:54:34.435Z,28.90
2019-04-04T23:57:03.610Z,27.13
2019-04-04T23:59:32.687Z,20.70
